Time;durP1;ratioP1;P1;durP2;ratioP2;P2;SDS_P1;SDS_P2;PMS_P1;PMS_P2;Temp;Humidity;BMP_temperature;BMP_pressure;BME280_temperature;BME280_humidity;BME280_pressure;Samples;Min_cycle;Max_cycle;Signal;HPM_P1;HPM_P2
2023/09/23 00:01:28;;;;;;;0.40;0.40;;;;;;;14.63;91.94;99680.00;4980564;28;20046;-64
2023/09/23 00:03:53;;;;;;;0.30;0.30;;;;;;;14.58;92.12;99683.91;4970911;28;20054;-64
2023/09/23 00:06:20;;;;;;;0.30;0.30;;;;;;;14.48;90.31;99671.00;4960308;29;20035;-64
2023/09/23 00:08:46;;;;;;;0.30;0.30;;;;;;;14.58;90.61;99681.22;4961432;28;20031;-64
2023/09/23 00:11:12;;;;;;;0.30;0.30;;;;;;;14.58;91.09;99682.06;4972187;28;20085;-63
2023/09/23 00:13:37;;;;;;;0.40;0.40;;;;;;;14.57;91.95;99679.47;4978376;28;20035;-64
2023/09/23 00:16:14;;;;;;;0.30;0.30;;;;;;;14.59;92.93;99683.81;4980524;28;20113;-64
2023/09/23 00:18:40;;;;;;;0.32;0.32;;;;;;;14.59;93.83;99683.81;4970818;28;20034;-64
2023/09/23 00:21:08;;;;;;;0.32;0.32;;;;;;;14.56;94.02;99686.66;4961057;29;20506;-64
2023/09/23 00:23:34;;;;;;;0.30;0.30;;;;;;;14.54;93.98;99680.53;4973497;28;20025;-64
2023/09/23 00:26:01;;;;;;;0.30;0.30;;;;;;;14.44;93.25;99692.66;4985308;28;20030;-64
2023/09/23 00:28:28;;;;;;;0.30;0.30;;;;;;;14.44;93.43;99695.34;4980436;28;20033;-64
2023/09/23 00:30:53;;;;;;;0.30;0.30;;;;;;;14.44;94.04;99693.53;4972829;28;20041;-64
2023/09/23 00:33:19;;;;;;;0.30;0.30;;;;;;;14.47;94.30;99695.19;4983234;28;20324;-64
2023/09/23 00:35:47;;;;;;;0.30;0.30;;;;;;;14.44;94.72;99695.34;4977711;28;20089;-64
2023/09/23 00:38:13;;;;;;;0.30;0.30;;;;;;;14.36;94.30;99703.75;4984012;28;20034;-64
2023/09/23 00:40:39;;;;;;;0.30;0.30;;;;;;;14.35;94.87;99701.16;4994666;28;20038;-64
2023/09/23 00:43:05;;;;;;;0.30;0.30;;;;;;;14.36;96.10;99705.59;4982727;28;20023;-64
2023/09/23 00:45:31;;;;;;;0.30;0.30;;;;;;;14.31;96.37;99704.97;4985665;28;20035;-64
2023/09/23 00:47:58;;;;;;;0.30;0.30;;;;;;;14.30;96.38;99704.09;4984104;28;20057;-64
2023/09/23 00:50:24;;;;;;;0.30;0.30;;;;;;;14.28;95.89;99705.13;4983422;28;20038;-64
2023/09/23 00:52:51;;;;;;;0.30;0.30;;;;;;;14.17;94.99;99699.44;4976757;28;20035;-64
2023/09/23 00:55:18;;;;;;;0.30;0.30;;;;;;;14.12;96.43;99712.16;4974197;28;20694;-64
2023/09/23 00:57:52;;;;;;;0.38;0.38;;;;;;;14.11;96.54;99707.78;4981301;28;20037;-64
2023/09/23 01:00:43;;;;;;;0.40;0.40;;;;;;;14.03;97.24;99713.53;4980514;28;20030;-64
2023/09/23 01:03:12;;;;;;;0.40;0.40;;;;;;;13.97;96.97;99719.19;4971851;28;20030;-64
2023/09/23 01:05:41;;;;;;;0.40;0.40;;;;;;;13.95;96.73;99718.38;4979422;28;20038;-64
2023/09/23 01:08:20;;;;;;;0.40;0.40;;;;;;;13.97;96.26;99719.19;4966281;28;20039;-64
2023/09/23 01:10:48;;;;;;;0.30;0.30;;;;;;;14.00;96.55;99715.50;4988748;28;20031;-64
2023/09/23 01:13:13;;;;;;;0.40;0.40;;;;;;;13.97;97.20;99715.66;4982327;28;20054;-64
2023/09/23 01:15:40;;;;;;;0.40;0.40;;;;;;;13.97;97.61;99716.50;4988164;28;20022;-64
2023/09/23 01:18:08;;;;;;;0.40;0.40;;;;;;;13.94;97.02;99721.13;4986784;28;20031;-64
2023/09/23 01:20:37;;;;;;;0.35;0.35;;;;;;;13.96;98.03;99719.25;4987323;28;20037;-64
2023/09/23 01:23:04;;;;;;;0.40;0.40;;;;;;;13.97;98.20;99718.34;4980098;28;20582;-64
2023/09/23 01:25:29;;;;;;;0.40;0.40;;;;;;;13.91;97.93;99721.31;4966908;29;20027;-64
2023/09/23 01:27:55;;;;;;;0.30;0.30;;;;;;;13.91;97.84;99727.53;4973064;28;20387;-64
2023/09/23 01:30:21;;;;;;;0.40;0.40;;;;;;;13.85;98.22;99727.84;4966435;29;20035;-64
2023/09/23 01:32:51;;;;;;;0.30;0.30;;;;;;;13.77;97.52;99729.16;4965480;29;20054;-64
2023/09/23 01:35:20;;;;;;;0.40;0.40;;;;;;;13.70;98.56;99733.94;4965362;28;20046;-64
2023/09/23 01:37:46;;;;;;;0.32;0.32;;;;;;;13.69;99.34;99742.06;4964675;29;20034;-64
2023/09/23 01:40:18;;;;;;;0.40;0.40;;;;;;;13.68;99.68;99740.28;4968740;28;20062;-64
2023/09/23 01:42:44;;;;;;;0.40;0.40;;;;;;;13.66;99.18;99739.50;4982510;28;20031;-64
2023/09/23 01:45:10;;;;;;;0.40;0.40;;;;;;;13.54;98.84;99743.63;4981864;28;20109;-64
2023/09/23 01:47:37;;;;;;;0.40;0.40;;;;;;;13.52;98.85;99752.69;4979043;28;20057;-64
2023/09/23 01:50:03;;;;;;;0.40;0.40;;;;;;;13.47;98.84;99744.03;4981406;28;20034;-64
2023/09/23 01:52:29;;;;;;;0.30;0.30;;;;;;;13.52;99.30;99742.00;4972543;28;20035;-64
2023/09/23 01:54:55;;;;;;;0.30;0.30;;;;;;;13.60;99.31;99753.19;4967756;28;20034;-64
2023/09/23 01:57:20;;;;;;;0.40;0.40;;;;;;;13.53;99.41;99754.41;4980027;28;20042;-64
2023/09/23 01:59:46;;;;;;;0.40;0.40;;;;;;;13.47;99.24;99754.72;4963473;28;20031;-64
2023/09/23 02:02:11;;;;;;;0.38;0.38;;;;;;;13.55;99.18;99764.09;4962222;28;20059;-65
2023/09/23 02:04:39;;;;;;;0.30;0.30;;;;;;;13.53;99.35;99762.44;4976319;28;20026;-64
2023/09/23 02:07:06;;;;;;;0.40;0.40;;;;;;;13.48;99.39;99770.66;4978867;28;20045;-64
2023/09/23 02:09:34;;;;;;;0.40;0.40;;;;;;;13.48;99.71;99769.78;4995448;28;20505;-65
2023/09/23 02:12:00;;;;;;;0.40;0.40;;;;;;;13.54;100.00;99772.19;4981448;28;20050;-64
2023/09/23 02:14:25;;;;;;;0.40;0.40;;;;;;;13.55;100.00;99771.25;4980054;28;20550;-65
2023/09/23 02:16:51;;;;;;;0.38;0.38;;;;;;;13.54;99.56;99775.72;4972736;28;20043;-65
2023/09/23 02:19:18;;;;;;;0.40;0.40;;;;;;;13.54;99.88;99777.53;4974577;28;20089;-64
2023/09/23 02:21:43;;;;;;;0.43;0.43;;;;;;;13.51;99.09;99780.38;4982359;28;20224;-64
2023/09/23 02:24:09;;;;;;;0.40;0.40;;;;;;;13.53;99.11;99768.66;4972452;28;20069;-64
2023/09/23 02:26:35;;;;;;;0.40;0.40;;;;;;;13.53;98.80;99774.00;4978559;28;20027;-64
2023/09/23 02:29:00;;;;;;;0.40;0.40;;;;;;;13.57;99.12;99775.59;4979550;28;20081;-64
2023/09/23 02:31:26;;;;;;;0.30;0.30;;;;;;;13.61;98.83;99781.63;4963565;28;20042;-64
2023/09/23 02:33:51;;;;;;;0.40;0.40;;;;;;;13.62;99.08;99767.34;4959548;28;20085;-64
2023/09/23 02:36:16;;;;;;;0.40;0.40;;;;;;;13.58;98.70;99776.44;4964528;28;20106;-64
2023/09/23 02:38:44;;;;;;;0.40;0.40;;;;;;;13.54;99.49;99785.56;4978824;28;20494;-64
2023/09/23 02:41:10;;;;;;;0.40;0.40;;;;;;;13.52;99.63;99782.09;4978609;28;20027;-64
2023/09/23 02:43:37;;;;;;;0.50;0.50;;;;;;;13.47;100.00;99789.44;4979694;28;20401;-64
2023/09/23 02:46:03;;;;;;;0.40;0.40;;;;;;;13.47;100.00;99794.78;4966280;28;20432;-65
2023/09/23 02:48:29;;;;;;;0.40;0.40;;;;;;;13.51;99.95;99802.59;4954867;29;20159;-65
2023/09/23 02:50:58;;;;;;;0.40;0.40;;;;;;;13.54;100.00;99809.59;4960376;28;20041;-65
2023/09/23 02:53:24;;;;;;;0.40;0.40;;;;;;;13.60;100.00;99817.31;4956349;29;20086;-65
2023/09/23 02:55:59;;;;;;;0.40;0.40;;;;;;;13.61;99.78;99814.56;4969809;28;20073;-65
2023/09/23 02:58:25;;;;;;;0.30;0.30;;;;;;;13.61;100.00;99808.34;4961529;28;20113;-65
2023/09/23 03:00:57;;;;;;;0.30;0.30;;;;;;;13.62;99.86;99810.09;4957537;28;20110;-65
2023/09/23 03:03:23;;;;;;;0.32;0.32;;;;;;;13.64;99.39;99811.75;4956787;29;20118;-65
2023/09/23 03:05:55;;;;;;;0.32;0.32;;;;;;;13.61;98.51;99803.00;4965685;28;20557;-65
2023/09/23 03:08:23;;;;;;;0.40;0.40;;;;;;;13.58;98.50;99812.03;4974482;28;20118;-65
2023/09/23 03:10:51;;;;;;;0.32;0.32;;;;;;;13.56;98.50;99816.59;4963927;28;20113;-65
2023/09/23 03:13:18;;;;;;;0.40;0.40;;;;;;;13.55;97.83;99816.66;4973334;28;20111;-65
2023/09/23 03:15:50;;;;;;;0.40;0.40;;;;;;;13.51;98.24;99823.13;4958299;28;20066;-65
2023/09/23 03:18:17;;;;;;;0.40;0.40;;;;;;;13.47;98.52;99813.50;4955691;29;20109;-61
2023/09/23 03:20:43;;;;;;;0.40;0.40;;;;;;;13.49;98.92;99816.97;4954344;29;20097;-61
2023/09/23 03:23:09;;;;;;;0.40;0.40;;;;;;;13.53;98.63;99818.53;4956747;28;20050;-62
2023/09/23 03:25:44;;;;;;;0.40;0.40;;;;;;;13.55;99.21;99828.22;4962574;28;20109;-62
2023/09/23 03:28:17;;;;;;;0.40;0.40;;;;;;;13.49;98.69;99814.31;4973118;28;20027;-61
2023/09/23 03:30:47;;;;;;;0.40;0.40;;;;;;;13.60;99.66;99823.53;4972767;28;20390;-61
2023/09/23 03:33:14;;;;;;;0.40;0.40;;;;;;;13.59;99.63;99826.28;4973973;28;20441;-61
2023/09/23 03:35:39;;;;;;;0.35;0.35;;;;;;;13.62;99.81;99832.34;4964496;28;20456;-60
2023/09/23 03:38:05;;;;;;;0.30;0.30;;;;;;;13.63;99.30;99830.53;4954883;29;20046;-62
2023/09/23 03:40:31;;;;;;;0.40;0.40;;;;;;;13.68;99.81;99836.53;4957198;28;20038;-61
2023/09/23 03:43:01;;;;;;;0.40;0.40;;;;;;;13.72;99.69;99840.78;4972743;28;20042;-61
2023/09/23 03:45:26;;;;;;;0.40;0.40;;;;;;;13.71;99.91;99842.59;4973362;28;20089;-61
2023/09/23 03:47:52;;;;;;;0.40;0.40;;;;;;;13.71;99.75;99833.69;4962015;28;20499;-60
2023/09/23 03:50:17;;;;;;;0.40;0.40;;;;;;;13.67;99.48;99840.16;4954006;29;20122;-62
2023/09/23 03:52:44;;;;;;;0.40;0.40;;;;;;;13.64;98.59;99840.28;4956631;28;20031;-61
2023/09/23 03:55:13;;;;;;;0.40;0.40;;;;;;;13.55;97.90;99824.69;4968332;28;20146;-61
2023/09/23 03:57:39;;;;;;;0.40;0.40;;;;;;;13.64;98.16;99829.59;4972817;28;20027;-62
2023/09/23 04:00:14;;;;;;;0.40;0.40;;;;;;;13.64;98.35;99829.59;4973322;28;20034;-62
2023/09/23 04:02:40;;;;;;;0.40;0.40;;;;;;;13.68;98.21;99836.53;4965727;28;20019;-61
2023/09/23 04:05:05;;;;;;;0.40;0.40;;;;;;;13.63;98.76;99834.06;4954182;29;20448;-61
2023/09/23 04:07:32;;;;;;;0.30;0.30;;;;;;;13.61;98.45;99837.75;4954478;28;20087;-62
2023/09/23 04:09:57;;;;;;;0.40;0.40;;;;;;;13.60;98.64;99839.56;4972703;28;20034;-60
2023/09/23 04:12:23;;;;;;;0.40;0.40;;;;;;;13.55;98.00;99835.38;4969168;28;20061;-62
2023/09/23 04:14:49;;;;;;;0.40;0.40;;;;;;;13.42;98.37;99820.88;4972541;28;20030;-60
2023/09/23 04:17:15;;;;;;;0.30;0.30;;;;;;;13.49;99.02;99830.34;4972570;28;20126;-61
2023/09/23 04:19:40;;;;;;;0.30;0.30;;;;;;;13.47;99.17;99837.53;4965057;28;20118;-62
2023/09/23 04:22:07;;;;;;;0.40;0.40;;;;;;;13.46;99.35;99838.50;4970991;28;20031;-61
2023/09/23 04:24:32;;;;;;;0.40;0.40;;;;;;;13.46;99.47;99854.53;4971440;28;20472;-62
2023/09/23 04:26:59;;;;;;;0.50;0.50;;;;;;;13.38;99.11;99848.69;4954475;28;20034;-61
2023/09/23 04:29:25;;;;;;;0.40;0.40;;;;;;;13.36;99.51;99851.38;4953579;29;20527;-62
2023/09/23 04:31:51;;;;;;;0.40;0.40;;;;;;;13.29;99.34;99854.44;4964083;28;20064;-62
2023/09/23 04:34:17;;;;;;;0.40;0.40;;;;;;;13.20;99.37;99853.94;4972651;28;20027;-61
2023/09/23 04:36:43;;;;;;;0.40;0.40;;;;;;;13.15;99.77;99857.72;4972750;28;20058;-61
2023/09/23 04:39:08;;;;;;;0.40;0.40;;;;;;;13.14;100.00;99867.56;4974877;28;20078;-62
2023/09/23 04:41:34;;;;;;;0.50;0.50;;;;;;;13.11;100.00;99869.50;4957496;28;20517;-62
2023/09/23 04:44:00;;;;;;;0.50;0.50;;;;;;;13.13;100.00;99871.16;4953613;29;20026;-61
2023/09/23 04:46:27;;;;;;;0.40;0.40;;;;;;;13.11;100.00;99869.50;4956608;28;20054;-61
2023/09/23 04:48:52;;;;;;;0.40;0.40;;;;;;;13.07;100.00;99873.22;4972487;28;20513;-61
2023/09/23 04:51:17;;;;;;;0.40;0.40;;;;;;;13.06;100.00;99879.53;4972531;28;20030;-61
2023/09/23 04:53:43;;;;;;;0.50;0.50;;;;;;;13.05;100.00;99875.09;4969063;28;20018;-61
2023/09/23 04:56:10;;;;;;;0.40;0.40;;;;;;;12.97;100.00;99878.09;4971915;28;20038;-62
2023/09/23 04:58:36;;;;;;;0.40;0.40;;;;;;;12.97;100.00;99886.09;4970474;28;20023;-61
2023/09/23 05:01:03;;;;;;;0.40;0.40;;;;;;;12.94;100.00;99899.59;4955957;28;20477;-61
2023/09/23 05:03:29;;;;;;;0.50;0.50;;;;;;;12.90;100.00;99895.31;4953115;29;20023;-61
2023/09/23 05:05:54;;;;;;;0.40;0.40;;;;;;;12.92;100.00;99901.44;4952971;29;20374;-62
2023/09/23 05:08:20;;;;;;;0.50;0.50;;;;;;;12.89;100.00;99898.94;4952567;29;20082;-62
2023/09/23 05:10:45;;;;;;;0.40;0.40;;;;;;;12.90;100.00;99905.97;4958665;28;20027;-61
2023/09/23 05:13:11;;;;;;;0.40;0.40;;;;;;;12.90;100.00;99905.97;4952052;29;20051;-61
2023/09/23 05:15:37;;;;;;;0.50;0.50;;;;;;;12.93;100.00;99905.00;4959021;28;20035;-61
2023/09/23 05:18:03;;;;;;;0.50;0.50;;;;;;;12.92;100.00;99914.81;4962932;28;20040;-61
2023/09/23 05:20:30;;;;;;;0.50;0.50;;;;;;;12.92;100.00;99914.81;4971421;28;20069;-62
2023/09/23 05:22:56;;;;;;;0.43;0.43;;;;;;;12.94;100.00;99918.28;4970243;28;20030;-61
2023/09/23 05:25:27;;;;;;;0.40;0.40;;;;;;;12.94;100.00;99912.94;4971361;28;20027;-61
2023/09/23 05:27:56;;;;;;;0.50;0.50;;;;;;;12.97;100.00;99918.13;4972656;28;20031;-61
2023/09/23 05:30:21;;;;;;;0.40;0.40;;;;;;;12.99;100.00;99932.28;4955292;28;20035;-61
2023/09/23 05:32:47;;;;;;;0.50;0.50;;;;;;;12.96;100.00;99924.41;4952537;29;20025;-62
2023/09/23 05:35:13;;;;;;;0.50;0.50;;;;;;;12.98;100.00;99925.19;4957571;28;20505;-61
2023/09/23 05:37:40;;;;;;;0.40;0.40;;;;;;;13.00;100.00;99923.34;4971815;28;20030;-61
2023/09/23 05:40:11;;;;;;;0.40;0.40;;;;;;;13.05;100.00;99928.50;4971424;28;20105;-60
2023/09/23 05:42:38;;;;;;;0.40;0.40;;;;;;;13.05;100.00;99931.16;4954335;28;20094;-61
2023/09/23 05:45:04;;;;;;;0.40;0.40;;;;;;;12.89;100.00;99906.94;4967561;28;20137;-61
2023/09/23 05:47:30;;;;;;;0.40;0.40;;;;;;;13.05;100.00;99942.72;4971399;28;20113;-62
2023/09/23 05:49:56;;;;;;;0.47;0.47;;;;;;;13.12;100.00;99954.00;4968912;28;20031;-61
2023/09/23 05:52:21;;;;;;;0.50;0.50;;;;;;;13.15;100.00;99954.75;4953215;28;20510;-62
2023/09/23 05:54:48;;;;;;;0.50;0.50;;;;;;;13.20;100.00;99959.88;4970817;28;20034;-61
2023/09/23 05:57:13;;;;;;;0.50;0.50;;;;;;;13.25;100.00;99963.22;4967642;28;20027;-61
2023/09/23 05:59:39;;;;;;;0.50;0.50;;;;;;;13.32;100.00;99966.47;4970530;28;20034;-61
2023/09/23 06:02:08;;;;;;;0.40;0.40;;;;;;;13.33;100.00;99970.91;4971529;28;20493;-62
2023/09/23 06:04:34;;;;;;;0.50;0.50;;;;;;;13.41;100.00;99971.44;4969593;28;20033;-61
2023/09/23 06:07:00;;;;;;;0.50;0.50;;;;;;;13.47;100.00;99976.50;4953771;28;20059;-62
2023/09/23 06:09:26;;;;;;;0.40;0.40;;;;;;;13.52;100.00;99979.81;4951209;29;20559;-61
2023/09/23 06:11:52;;;;;;;0.40;0.40;;;;;;;13.59;100.00;99978.63;4953464;28;20041;-62
2023/09/23 06:14:17;;;;;;;0.40;0.40;;;;;;;13.66;100.00;99988.06;4952142;28;20126;-61
2023/09/23 06:16:44;;;;;;;0.40;0.40;;;;;;;13.74;100.00;99991.28;4972315;28;20097;-62
2023/09/23 06:19:09;;;;;;;0.40;0.40;;;;;;;13.82;100.00;99999.81;4968969;28;20031;-61
2023/09/23 06:21:34;;;;;;;0.40;0.40;;;;;;;13.92;100.00;100003.81;4969961;28;20041;-62
2023/09/23 06:24:00;;;;;;;0.40;0.40;;;;;;;14.05;100.00;100000.47;4970936;28;20027;-61
2023/09/23 06:26:25;;;;;;;0.40;0.40;;;;;;;14.21;100.00;100003.31;4970864;28;20106;-61
2023/09/23 06:28:51;;;;;;;0.40;0.40;;;;;;;14.47;100.00;100005.63;4965896;28;20103;-61
2023/09/23 06:31:16;;;;;;;0.40;0.40;;;;;;;14.72;99.38;100016.88;4960460;28;20379;-62
2023/09/23 06:33:42;;;;;;;0.40;0.40;;;;;;;15.03;98.83;100027.78;4970687;28;20030;-61
2023/09/23 06:36:07;;;;;;;0.38;0.38;;;;;;;15.34;96.55;100027.97;4957396;28;20072;-61
2023/09/23 06:38:33;;;;;;;0.35;0.35;;;;;;;15.69;94.74;100027.03;4951384;29;20443;-62
2023/09/23 06:40:58;;;;;;;0.30;0.30;;;;;;;16.19;92.85;100029.66;4960082;28;20058;-62
2023/09/23 06:43:24;;;;;;;0.38;0.38;;;;;;;17.05;87.99;100027.38;4972484;28;20027;-61
2023/09/23 06:45:57;;;;;;;0.30;0.30;;;;;;;17.98;83.01;100036.94;4960107;28;20134;-62
2023/09/23 06:48:23;;;;;;;0.30;0.30;;;;;;;19.30;76.90;100043.53;4970374;28;20034;-61
2023/09/23 06:51:02;;;;;;;0.30;0.30;;;;;;;20.35;68.67;100046.88;4967361;28;20458;-62
2023/09/23 06:53:29;;;;;;;0.20;0.20;;;;;;;21.07;62.13;100046.03;4970600;28;20578;-61
2023/09/23 06:55:55;;;;;;;0.30;0.30;;;;;;;21.57;60.41;100056.59;4966701;28;20514;-62
2023/09/23 06:58:20;;;;;;;0.20;0.20;;;;;;;21.68;59.81;100058.47;4966372;28;20054;-61
2023/09/23 07:00:46;;;;;;;0.30;0.30;;;;;;;22.10;58.17;100057.84;4969812;28;20074;-61
2023/09/23 07:03:11;;;;;;;0.22;0.22;;;;;;;22.84;56.43;100066.25;4970314;28;20030;-63
2023/09/23 07:05:38;;;;;;;0.20;0.20;;;;;;;23.51;53.31;100060.66;4966627;28;20033;-62
2023/09/23 07:08:04;;;;;;;0.20;0.20;;;;;;;23.79;51.29;100063.56;4970424;28;20034;-61
2023/09/23 07:10:36;;;;;;;0.20;0.20;;;;;;;23.95;50.51;100060.41;4969752;28;20390;-62
2023/09/23 07:13:04;;;;;;;0.20;0.20;;;;;;;24.44;49.63;100060.56;4968428;28;20050;-63
2023/09/23 07:15:41;;;;;;;0.20;0.20;;;;;;;25.31;47.26;100068.00;4969320;28;20312;-61
2023/09/23 07:18:07;;;;;;;0.20;0.20;;;;;;;25.49;45.89;100061.75;4957478;28;20029;-61
2023/09/23 07:20:34;;;;;;;0.10;0.10;;;;;;;24.58;47.55;100076.50;4969843;28;20081;-61
2023/09/23 07:23:00;;;;;;;0.10;0.10;;;;;;;24.52;48.52;100063.47;4959170;28;20489;-62
2023/09/23 07:25:26;;;;;;;0.20;0.20;;;;;;;25.02;47.32;100039.88;4967354;28;20041;-63
2023/09/23 07:27:53;;;;;;;0.20;0.20;;;;;;;25.67;46.36;100062.75;4966224;28;20030;-62
2023/09/23 07:30:18;;;;;;;0.10;0.10;;;;;;;25.00;45.97;100072.69;4962200;28;20050;-61
2023/09/23 07:32:46;;;;;;;0.20;0.20;;;;;;;24.79;47.26;100082.81;4969339;28;20061;-62
2023/09/23 07:35:12;;;;;;;0.13;0.13;;;;;;;24.87;47.53;100072.09;4963972;28;20045;-61
2023/09/23 07:37:37;;;;;;;0.20;0.20;;;;;;;25.42;46.47;100085.09;4964324;28;20122;-62
2023/09/23 07:40:06;;;;;;;0.10;0.10;;;;;;;24.97;45.91;100086.59;4967175;28;20550;-62
2023/09/23 07:42:31;;;;;;;0.13;0.13;;;;;;;24.88;47.16;100091.97;4970824;28;20522;-60
2023/09/23 07:44:57;;;;;;;0.17;0.17;;;;;;;25.11;47.13;100091.63;4972489;28;20054;-61
2023/09/23 07:47:22;;;;;;;0.20;0.20;;;;;;;25.69;46.37;100098.91;4973211;28;20029;-62
2023/09/23 07:49:47;;;;;;;0.10;0.10;;;;;;;25.75;45.43;100103.75;4956731;28;20027;-62
2023/09/23 07:52:13;;;;;;;0.10;0.10;;;;;;;25.43;46.48;100115.94;4971475;28;20098;-63
2023/09/23 07:54:38;;;;;;;0.10;0.10;;;;;;;24.84;47.10;100123.19;4971492;28;20031;-62
2023/09/23 07:57:04;;;;;;;0.10;0.10;;;;;;;24.73;47.80;100121.41;4969793;28;20042;-65
2023/09/23 07:59:29;;;;;;;0.10;0.10;;;;;;;24.18;48.84;100130.84;4975890;28;20097;-65
2023/09/23 08:01:55;;;;;;;0.10;0.10;;;;;;;24.22;49.53;100123.25;4973650;28;20030;-66
2023/09/23 08:04:20;;;;;;;0.10;0.10;;;;;;;24.04;49.73;100127.56;4975775;28;20031;-65
2023/09/23 08:06:46;;;;;;;0.10;0.10;;;;;;;23.95;49.03;100125.63;4975216;28;20105;-66
2023/09/23 08:09:11;;;;;;;0.10;0.10;;;;;;;23.70;49.73;100123.28;4979440;28;20027;-65
2023/09/23 08:11:36;;;;;;;0.10;0.10;;;;;;;23.64;49.85;100132.78;4979355;28;20033;-66
2023/09/23 08:14:02;;;;;;;0.10;0.10;;;;;;;23.17;50.24;100125.00;4979950;28;20073;-65
2023/09/23 08:16:27;;;;;;;0.10;0.10;;;;;;;23.31;52.24;100141.91;4986415;28;20027;-65
2023/09/23 08:18:52;;;;;;;0.10;0.10;;;;;;;23.58;51.02;100151.44;4981315;28;20039;-66
2023/09/23 08:21:18;;;;;;;0.10;0.10;;;;;;;23.86;49.82;100151.72;4981925;28;20031;-66
2023/09/23 08:23:44;;;;;;;0.10;0.10;;;;;;;23.68;50.11;100157.84;4982579;28;20019;-66
2023/09/23 08:26:10;;;;;;;0.10;0.10;;;;;;;23.24;50.67;100161.53;4979328;28;20034;-66
2023/09/23 08:28:36;;;;;;;0.10;0.10;;;;;;;23.32;50.85;100162.66;4974975;28;20042;-66
2023/09/23 08:31:02;;;;;;;0.10;0.10;;;;;;;23.57;51.12;100166.91;4978835;28;20027;-65
2023/09/23 08:33:27;;;;;;;0.10;0.10;;;;;;;23.79;49.57;100160.53;4976203;28;20471;-66
2023/09/23 08:35:53;;;;;;;0.10;0.10;;;;;;;23.81;51.22;100162.13;4971339;28;20023;-66
2023/09/23 08:38:20;;;;;;;0.10;0.10;;;;;;;24.16;48.85;100172.72;4975725;28;20556;-66
2023/09/23 08:40:46;;;;;;;0.10;0.10;;;;;;;24.35;48.09;100170.13;4971090;28;20093;-67
2023/09/23 08:43:11;;;;;;;0.10;0.10;;;;;;;24.51;48.34;100181.44;4974013;28;20478;-67
2023/09/23 08:45:46;;;;;;;0.10;0.10;;;;;;;24.71;47.86;100183.31;4974738;28;20530;-66
2023/09/23 08:48:13;;;;;;;0.10;0.10;;;;;;;24.62;48.29;100170.47;4976247;28;20031;-66
2023/09/23 08:50:46;;;;;;;0.10;0.10;;;;;;;24.86;47.90;100181.09;4972922;28;20057;-66
2023/09/23 08:53:16;;;;;;;0.10;0.10;;;;;;;24.89;48.38;100178.09;4977455;28;20391;-66
2023/09/23 08:55:43;;;;;;;0.10;0.10;;;;;;;25.18;46.99;100188.09;4969193;28;20041;-67
2023/09/23 08:58:09;;;;;;;0.10;0.10;;;;;;;25.45;46.65;100182.03;4969733;28;20038;-67
2023/09/23 09:00:34;;;;;;;0.10;0.10;;;;;;;25.51;46.29;100185.06;4969896;28;20495;-67
2023/09/23 09:03:00;;;;;;;0.10;0.10;;;;;;;25.38;46.93;100189.03;4969183;28;20026;-67
2023/09/23 09:05:39;;;;;;;0.10;0.10;;;;;;;25.51;45.79;100201.41;4969911;28;20266;-67
2023/09/23 09:08:05;;;;;;;0.10;0.10;;;;;;;25.63;45.13;100197.53;4951730;28;20094;-63
2023/09/23 09:10:31;;;;;;;0.10;0.10;;;;;;;25.86;45.41;100199.00;4967224;28;20030;-62
2023/09/23 09:12:56;;;;;;;0.10;0.10;;;;;;;25.71;44.26;100197.72;4964097;28;20047;-62
2023/09/23 09:15:23;;;;;;;0.10;0.10;;;;;;;25.70;45.40;100200.59;4968088;28;20031;-63
2023/09/23 09:17:49;;;;;;;0.10;0.10;;;;;;;25.80;44.71;100202.31;4959122;28;20404;-62
2023/09/23 09:20:14;;;;;;;0.10;0.10;;;;;;;26.26;44.08;100198.06;4966611;28;20039;-63
2023/09/23 09:22:39;;;;;;;0.10;0.10;;;;;;;26.64;44.03;100203.47;4968872;28;20038;-63
2023/09/23 09:25:07;;;;;;;0.00;0.00;;;;;;;26.95;42.73;100196.78;4969180;28;20034;-63
2023/09/23 09:27:35;;;;;;;0.10;0.10;;;;;;;26.90;41.90;100191.75;4968412;28;20035;-62
2023/09/23 09:30:00;;;;;;;0.10;0.10;;;;;;;26.62;42.26;100194.56;4968029;28;20033;-63
2023/09/23 09:32:29;;;;;;;0.03;0.03;;;;;;;26.75;42.20;100198.72;4964417;28;20026;-64
2023/09/23 09:35:00;;;;;;;0.10;0.10;;;;;;;26.99;43.13;100187.28;4969628;28;20616;-63
2023/09/23 09:37:27;;;;;;;0.00;0.00;;;;;;;27.35;42.34;100188.31;4969036;28;20023;-64
2023/09/23 09:40:01;;;;;;;0.00;0.00;;;;;;;27.60;41.80;100188.44;4970339;28;20031;-64
2023/09/23 09:42:30;;;;;;;0.00;0.00;;;;;;;27.30;40.67;100180.53;4965997;28;20027;-63
2023/09/23 09:45:00;;;;;;;0.00;0.00;;;;;;;27.17;40.18;100186.34;4965004;28;20530;-64
2023/09/23 09:47:29;;;;;;;0.00;0.00;;;;;;;27.11;41.13;100180.63;4969562;28;20080;-64
2023/09/23 09:49:54;;;;;;;0.00;0.00;;;;;;;27.38;41.06;100177.91;4970090;28;20043;-64
2023/09/23 09:52:22;;;;;;;0.00;0.00;;;;;;;26.99;41.63;100181.81;4969847;28;20041;-63
2023/09/23 09:54:52;;;;;;;0.00;0.00;;;;;;;26.95;41.34;100189.44;4970063;28;20066;-64
2023/09/23 09:57:28;;;;;;;0.00;0.00;;;;;;;27.22;41.35;100183.16;4968186;28;20035;-63
2023/09/23 09:59:59;;;;;;;0.00;0.00;;;;;;;27.59;40.37;100186.72;4970706;28;20102;-64
2023/09/23 10:02:24;;;;;;;0.00;0.00;;;;;;;27.74;39.99;100189.78;4966639;28;20073;-64
2023/09/23 10:04:51;;;;;;;0.00;0.00;;;;;;;27.77;38.60;100181.25;4969442;28;20058;-63
2023/09/23 10:07:16;;;;;;;0.00;0.00;;;;;;;27.25;39.47;100182.00;4969801;28;20031;-64
2023/09/23 10:09:55;;;;;;;0.00;0.00;;;;;;;26.97;39.49;100186.56;4968346;28;20423;-63
2023/09/23 10:12:25;;;;;;;0.10;0.10;;;;;;;27.11;41.00;100175.16;4946934;28;20131;-62
2023/09/23 10:14:54;;;;;;;0.00;0.00;;;;;;;27.77;39.82;100179.41;4937436;28;20047;-64
2023/09/23 10:17:29;;;;;;;0.00;0.00;;;;;;;27.38;39.98;100177.06;4938024;29;20031;-66
2023/09/23 10:19:55;;;;;;;0.10;0.10;;;;;;;27.58;39.17;100173.22;4937793;29;20031;-67
2023/09/23 10:22:24;;;;;;;0.00;0.00;;;;;;;27.25;38.75;100177.38;4920948;28;20035;-68
2023/09/23 10:25:06;;;;;;;0.00;0.00;;;;;;;27.17;39.92;100174.53;4937077;28;20019;-67
2023/09/23 10:27:36;;;;;;;0.00;0.00;;;;;;;27.63;41.12;100166.25;4937868;28;20066;-67
2023/09/23 10:30:02;;;;;;;0.00;0.00;;;;;;;28.04;40.35;100176.59;4938620;29;20671;-67
2023/09/23 10:32:28;;;;;;;0.00;0.00;;;;;;;28.13;39.39;100180.28;4937879;29;20027;-67
2023/09/23 10:34:58;;;;;;;0.00;0.00;;;;;;;28.16;37.81;100172.63;4938631;29;20035;-68
2023/09/23 10:37:31;;;;;;;0.00;0.00;;;;;;;28.02;38.16;100170.44;4940980;29;20035;-67
2023/09/23 10:40:12;;;;;;;0.00;0.00;;;;;;;28.35;38.14;100179.81;4947007;29;20388;-67
2023/09/23 10:42:38;;;;;;;0.00;0.00;;;;;;;27.87;37.72;100174.72;4947785;29;20155;-68
2023/09/23 10:45:05;;;;;;;0.00;0.00;;;;;;;27.60;38.53;100171.16;4949055;29;20038;-65
2023/09/23 10:47:30;;;;;;;0.00;0.00;;;;;;;27.61;39.89;100171.00;4949826;29;20039;-65
2023/09/23 10:49:56;;;;;;;0.00;0.00;;;;;;;27.29;40.05;100175.22;4954894;29;20043;-66
2023/09/23 10:52:22;;;;;;;0.00;0.00;;;;;;;26.85;39.40;100169.50;4947482;29;20777;-68
2023/09/23 10:54:48;;;;;;;0.00;0.00;;;;;;;26.42;42.14;100171.03;4948600;29;20031;-68
2023/09/23 10:57:14;;;;;;;0.00;0.00;;;;;;;26.50;40.58;100162.97;4949413;29;20085;-68
2023/09/23 10:59:43;;;;;;;0.10;0.10;;;;;;;26.99;41.09;100163.56;4950169;29;20491;-68
2023/09/23 11:02:10;;;;;;;0.00;0.00;;;;;;;27.30;39.37;100163.31;4946925;29;20019;-68
2023/09/23 11:04:35;;;;;;;0.00;0.00;;;;;;;27.59;39.61;100158.53;4950446;29;20098;-68
2023/09/23 11:07:02;;;;;;;0.00;0.00;;;;;;;27.28;41.21;100168.94;4944996;28;20031;-68
2023/09/23 11:09:28;;;;;;;0.00;0.00;;;;;;;27.19;39.18;100172.53;4946897;29;20093;-68
2023/09/23 11:11:54;;;;;;;0.00;0.00;;;;;;;26.73;39.72;100176.16;4951570;28;20498;-70
2023/09/23 11:14:21;;;;;;;0.00;0.00;;;;;;;25.74;41.88;100170.19;4969382;28;20102;-68
2023/09/23 11:16:48;;;;;;;0.00;0.00;;;;;;;24.85;43.43;100177.47;4968265;28;20121;-67
2023/09/23 11:19:17;;;;;;;0.10;0.10;;;;;;;24.41;45.72;100180.50;4972752;28;20038;-66
2023/09/23 11:21:44;;;;;;;0.00;0.00;;;;;;;23.93;46.18;100176.50;4973546;28;20069;-68
2023/09/23 11:24:10;;;;;;;0.10;0.10;;;;;;;24.30;48.01;100180.59;4968681;28;20391;-68
2023/09/23 11:26:39;;;;;;;0.10;0.10;;;;;;;24.51;47.60;100178.72;4960604;28;20061;-68
2023/09/23 11:29:05;;;;;;;0.10;0.10;;;;;;;24.95;47.42;100177.53;4973145;28;20094;-62